createdAt,value
2019-05-20T00:01:33.844Z,75.60
2019-05-20T00:04:02.204Z,75.40
2019-05-20T00:06:30.536Z,75.60
2019-05-20T00:08:58.816Z,75.60
2019-05-20T00:11:27.134Z,75.60
2019-05-20T00:13:55.542Z,75.60
2019-05-20T00:16:23.913Z,75.80
2019-05-20T00:18:52.224Z,75.80
2019-05-20T00:21:20.563Z,75.80
2019-05-20T00:23:48.956Z,75.80
2019-05-20T00:26:17.599Z,75.80
2019-05-20T00:28:46.039Z,76.00
2019-05-20T00:31:14.379Z,76.00
2019-05-20T00:33:42.755Z,75.90
2019-05-20T00:36:11.067Z,76.00
2019-05-20T00:38:39.359Z,76.00
2019-05-20T00:41:07.725Z,76.10
2019-05-20T00:43:36.119Z,76.20
2019-05-20T00:46:04.483Z,76.30
2019-05-20T00:48:33.105Z,76.40
2019-05-20T00:51:01.791Z,76.10
2019-05-20T00:53:30.159Z,76.40
2019-05-20T00:55:58.540Z,76.40
2019-05-20T00:58:26.954Z,76.20
2019-05-20T01:00:55.308Z,76.30
2019-05-20T01:03:23.990Z,76.50
2019-05-20T01:05:52.544Z,76.40
2019-05-20T01:08:20.908Z,76.40
2019-05-20T01:10:49.205Z,76.60
2019-05-20T01:13:17.530Z,76.80
2019-05-20T01:15:46.183Z,76.80
2019-05-20T01:18:14.545Z,76.70
2019-05-20T01:20:42.967Z,76.60
2019-05-20T01:23:11.327Z,76.60
2019-05-20T01:25:39.627Z,76.30
2019-05-20T01:28:08.391Z,76.40
2019-05-20T01:30:36.773Z,76.40
2019-05-20T01:33:13.712Z,76.40
2019-05-20T01:35:35.211Z,76.00
2019-05-20T01:38:03.564Z,76.20
2019-05-20T01:40:31.852Z,76.10
2019-05-20T01:43:00.285Z,75.80
2019-05-20T01:45:28.643Z,75.90
2019-05-20T01:47:57.011Z,76.10
2019-05-20T01:50:25.404Z,76.10
2019-05-20T01:52:54.145Z,75.90
2019-05-20T01:55:22.457Z,75.90
2019-05-20T01:57:51.103Z,75.90
2019-05-20T02:00:19.482Z,75.90
2019-05-20T02:02:47.859Z,76.00
2019-05-20T02:05:16.270Z,76.00
2019-05-20T02:07:44.640Z,75.80
2019-05-20T02:10:13.082Z,75.80
2019-05-20T02:12:41.468Z,75.80
2019-05-20T02:15:11.420Z,75.30
2019-05-20T02:17:39.789Z,75.50
2019-05-20T02:20:08.364Z,75.50
2019-05-20T02:22:36.752Z,75.50
2019-05-20T02:25:05.314Z,75.70
2019-05-20T02:27:33.686Z,75.60
2019-05-20T02:30:02.109Z,75.90
2019-05-20T02:32:30.545Z,75.70
2019-05-20T02:34:58.889Z,75.90
2019-05-20T02:37:27.266Z,75.40
2019-05-20T02:39:55.620Z,75.50
2019-05-20T02:42:24.002Z,75.60
2019-05-20T02:44:52.312Z,75.90
2019-05-20T02:47:20.917Z,75.30
2019-05-20T02:49:49.380Z,75.90
2019-05-20T02:52:17.674Z,75.70
2019-05-20T02:54:46.039Z,75.70
2019-05-20T02:57:14.434Z,75.80
2019-05-20T02:59:42.813Z,76.00
2019-05-20T03:02:11.111Z,76.60
2019-05-20T03:04:40.183Z,75.70
2019-05-20T03:07:08.550Z,75.50
2019-05-20T03:09:36.848Z,75.60
2019-05-20T03:12:05.636Z,76.30
2019-05-20T03:14:34.054Z,75.60
2019-05-20T03:17:02.438Z,75.50
2019-05-20T03:19:30.852Z,75.40
2019-05-20T03:21:59.217Z,75.50
2019-05-20T03:24:27.523Z,75.50
2019-05-20T03:26:55.924Z,75.70
2019-05-20T03:29:24.312Z,75.90
2019-05-20T03:31:52.678Z,75.80
2019-05-20T03:34:43.826Z,76.00
2019-05-20T03:36:51.083Z,76.30
2019-05-20T03:39:19.459Z,76.40
2019-05-20T03:41:48.228Z,76.60
2019-05-20T03:44:16.597Z,76.60
2019-05-20T03:46:44.872Z,76.70
2019-05-20T03:49:13.280Z,76.30
2019-05-20T03:51:41.649Z,76.30
2019-05-20T03:54:10.026Z,76.30
2019-05-20T03:56:38.683Z,76.80
2019-05-20T03:59:07.049Z,76.30
2019-05-20T04:01:35.693Z,76.50
2019-05-20T04:04:04.087Z,76.50
2019-05-20T04:06:32.457Z,76.50
2019-05-20T04:09:00.824Z,76.60
2019-05-20T04:11:29.213Z,76.70
2019-05-20T04:13:57.593Z,76.70
2019-05-20T04:16:25.973Z,76.50
2019-05-20T04:18:54.518Z,76.70
2019-05-20T04:21:22.916Z,76.70
2019-05-20T04:23:51.283Z,76.50
2019-05-20T04:26:19.946Z,76.40
2019-05-20T04:28:48.239Z,76.50
2019-05-20T04:31:16.596Z,76.50
2019-05-20T04:33:44.998Z,76.40
2019-05-20T04:36:13.462Z,77.30
2019-05-20T04:38:41.829Z,77.00
2019-05-20T04:41:10.548Z,76.50
2019-05-20T04:43:38.916Z,76.30
2019-05-20T04:46:07.291Z,76.70
2019-05-20T04:48:35.681Z,76.70
2019-05-20T04:51:04.113Z,76.50
2019-05-20T04:53:32.426Z,76.80
2019-05-20T04:56:00.831Z,76.70
2019-05-20T04:58:29.199Z,77.10
2019-05-20T05:00:58.140Z,76.90
2019-05-20T05:03:26.674Z,77.00
2019-05-20T05:05:55.259Z,76.90
2019-05-20T05:08:23.697Z,76.70
2019-05-20T05:10:52.105Z,76.70
2019-05-20T05:13:20.472Z,76.50
2019-05-20T05:18:24.456Z,76.90
2019-05-20T05:20:52.794Z,76.50
2019-05-20T05:23:21.207Z,76.90
2019-05-20T05:28:35.788Z,77.20
2019-05-20T05:31:04.178Z,76.90
2019-05-20T05:33:32.509Z,76.70
2019-05-20T05:36:00.946Z,76.90
2019-05-20T05:38:29.291Z,76.90
2019-05-20T05:40:57.596Z,76.90
2019-05-20T05:43:25.909Z,76.70
2019-05-20T05:45:54.258Z,76.70
2019-05-20T05:48:22.652Z,76.70
2019-05-20T05:50:51.055Z,77.30
2019-05-20T05:53:20.141Z,77.20
2019-05-20T05:55:48.551Z,77.10
2019-05-20T05:58:16.897Z,77.10
2019-05-20T06:00:45.293Z,77.00
2019-05-20T06:03:14.122Z,77.50
2019-05-20T06:05:42.509Z,77.10
2019-05-20T06:08:10.881Z,76.90
2019-05-20T06:10:39.286Z,77.10
2019-05-20T06:13:08.022Z,76.60
2019-05-20T06:15:36.380Z,76.50
2019-05-20T06:18:04.704Z,76.40
2019-05-20T06:20:33.007Z,76.70
2019-05-20T06:23:01.397Z,76.90
2019-05-20T06:25:29.731Z,76.80
2019-05-20T06:27:58.039Z,77.20
2019-05-20T06:30:37.989Z,77.40
2019-05-20T06:33:06.371Z,77.40
2019-05-20T06:35:34.720Z,77.80
2019-05-20T06:38:04.852Z,77.50
2019-05-20T06:40:33.190Z,77.90
2019-05-20T06:43:01.528Z,77.90
2019-05-20T06:45:29.951Z,77.60
2019-05-20T06:47:58.612Z,77.70
2019-05-20T06:50:29.580Z,77.60
2019-05-20T06:59:28.365Z,78.00
2019-05-20T07:01:56.663Z,78.00
2019-05-20T07:04:25.030Z,78.10
2019-05-20T07:06:53.893Z,78.30
2019-05-20T07:09:22.246Z,78.80
2019-05-20T07:11:53.121Z,78.80
2019-05-20T07:14:39.151Z,79.20
2019-05-20T07:17:07.492Z,78.80
2019-05-20T07:19:35.811Z,78.70
2019-05-20T07:22:04.142Z,78.80
2019-05-20T07:24:32.501Z,79.20
2019-05-20T07:27:02.262Z,79.20
2019-05-20T07:29:30.630Z,79.60
2019-05-20T07:31:58.944Z,79.60
2019-05-20T07:34:27.305Z,79.80
2019-05-20T07:37:03.129Z,79.60
2019-05-20T07:39:25.753Z,80.10
2019-05-20T07:41:54.138Z,79.70
2019-05-20T07:44:22.502Z,79.60
2019-05-20T07:46:50.844Z,80.90
2019-05-20T07:49:19.289Z,79.90
2019-05-20T07:51:47.681Z,79.50
2019-05-20T07:54:16.040Z,79.60
2019-05-20T07:56:44.780Z,79.90
2019-05-20T07:59:13.241Z,79.80
2019-05-20T08:01:41.560Z,79.80
2019-05-20T08:04:09.865Z,80.40
2019-05-20T08:06:38.207Z,80.10
2019-05-20T08:09:07.548Z,79.80
2019-05-20T08:11:36.122Z,79.80
2019-05-20T08:14:04.440Z,80.10
2019-05-20T08:16:33.204Z,80.20
2019-05-20T08:19:02.111Z,79.90
2019-05-20T08:21:30.530Z,80.10
2019-05-20T08:23:58.869Z,79.80
2019-05-20T08:26:27.247Z,80.10
2019-05-20T08:28:57.591Z,79.80
2019-05-20T08:31:25.955Z,79.90
2019-05-20T08:33:54.611Z,79.80
2019-05-20T08:36:23.021Z,79.80
2019-05-20T08:38:51.327Z,79.90
2019-05-20T08:41:19.637Z,79.90
2019-05-20T08:43:48.153Z,79.90
2019-05-20T08:46:16.549Z,80.00
2019-05-20T08:48:45.213Z,79.70
2019-05-20T08:51:17.460Z,80.30
2019-05-20T08:53:45.968Z,80.10
2019-05-20T08:56:14.662Z,80.10
2019-05-20T08:58:43.592Z,79.90
2019-05-20T09:01:12.511Z,80.10
2019-05-20T09:03:40.960Z,79.80
2019-05-20T09:06:09.813Z,80.00
2019-05-20T09:08:38.196Z,79.90
2019-05-20T09:11:06.604Z,79.60
2019-05-20T09:13:34.994Z,79.40
